sensor_id;sensor_type;location;lat;lon;timestamp;P1;durP1;ratioP1;P2;durP2;ratioP2
75413;SDS011;64758;52.122;5.404;2023-07-20T00:02:26;4.85;;;3.50;;
75413;SDS011;64758;52.122;5.404;2023-07-20T00:04:52;4.28;;;3.25;;
75413;SDS011;64758;52.122;5.404;2023-07-20T00:07:19;4.05;;;3.03;;
75413;SDS011;64758;52.122;5.404;2023-07-20T00:09:45;3.50;;;2.90;;
75413;SDS011;64758;52.122;5.404;2023-07-20T00:12:12;4.97;;;3.03;;
75413;SDS011;64758;52.122;5.404;2023-07-20T00:14:40;4.72;;;2.88;;
75413;SDS011;64758;52.122;5.404;2023-07-20T00:17:06;4.13;;;2.45;;
75413;SDS011;64758;52.122;5.404;2023-07-20T00:19:33;3.13;;;1.95;;
75413;SDS011;64758;52.122;5.404;2023-07-20T00:22:01;3.00;;;2.23;;
75413;SDS011;64758;52.122;5.404;2023-07-20T00:24:28;3.25;;;1.90;;
75413;SDS011;64758;52.122;5.404;2023-07-20T00:26:54;2.00;;;1.80;;
75413;SDS011;64758;52.122;5.404;2023-07-20T00:29:21;2.42;;;1.60;;
75413;SDS011;64758;52.122;5.404;2023-07-20T00:31:47;1.90;;;1.50;;
75413;SDS011;64758;52.122;5.404;2023-07-20T00:34:17;1.90;;;1.20;;
75413;SDS011;64758;52.122;5.404;2023-07-20T00:36:43;2.65;;;1.17;;
75413;SDS011;64758;52.122;5.404;2023-07-20T00:39:10;2.00;;;1.27;;
75413;SDS011;64758;52.122;5.404;2023-07-20T00:41:36;1.33;;;1.00;;
75413;SDS011;64758;52.122;5.404;2023-07-20T00:44:04;1.77;;;1.10;;
75413;SDS011;64758;52.122;5.404;2023-07-20T00:46:31;1.80;;;1.23;;
75413;SDS011;64758;52.122;5.404;2023-07-20T00:48:59;1.35;;;0.95;;
75413;SDS011;64758;52.122;5.404;2023-07-20T00:51:26;1.60;;;1.10;;
75413;SDS011;64758;52.122;5.404;2023-07-20T00:53:53;2.25;;;1.00;;
75413;SDS011;64758;52.122;5.404;2023-07-20T00:56:20;1.40;;;0.98;;
75413;SDS011;64758;52.122;5.404;2023-07-20T00:58:49;1.33;;;1.07;;
75413;SDS011;64758;52.122;5.404;2023-07-20T01:01:15;1.48;;;0.90;;
75413;SDS011;64758;52.122;5.404;2023-07-20T01:03:42;0.90;;;0.80;;
75413;SDS011;64758;52.122;5.404;2023-07-20T01:14:12;1.33;;;0.82;;
75413;SDS011;64758;52.122;5.404;2023-07-20T01:16:40;1.20;;;0.95;;
75413;SDS011;64758;52.122;5.404;2023-07-20T01:19:07;1.80;;;0.90;;
75413;SDS011;64758;52.122;5.404;2023-07-20T01:21:36;1.10;;;0.65;;
75413;SDS011;64758;52.122;5.404;2023-07-20T01:26:44;0.80;;;0.60;;
75413;SDS011;64758;52.122;5.404;2023-07-20T01:32:09;1.30;;;0.82;;
75413;SDS011;64758;52.122;5.404;2023-07-20T01:34:36;1.38;;;0.90;;
75413;SDS011;64758;52.122;5.404;2023-07-20T01:37:06;2.27;;;0.80;;
75413;SDS011;64758;52.122;5.404;2023-07-20T01:39:33;1.70;;;0.95;;
75413;SDS011;64758;52.122;5.404;2023-07-20T01:42:01;0.98;;;0.65;;
75413;SDS011;64758;52.122;5.404;2023-07-20T01:44:28;1.65;;;0.85;;
75413;SDS011;64758;52.122;5.404;2023-07-20T01:46:55;1.23;;;0.73;;
75413;SDS011;64758;52.122;5.404;2023-07-20T01:49:22;1.07;;;0.50;;
75413;SDS011;64758;52.122;5.404;2023-07-20T01:51:48;1.00;;;0.50;;
75413;SDS011;64758;52.122;5.404;2023-07-20T01:54:15;1.20;;;0.52;;
75413;SDS011;64758;52.122;5.404;2023-07-20T01:56:41;1.30;;;0.30;;
75413;SDS011;64758;52.122;5.404;2023-07-20T01:59:08;0.80;;;0.50;;
75413;SDS011;64758;52.122;5.404;2023-07-20T02:01:34;0.70;;;0.40;;
75413;SDS011;64758;52.122;5.404;2023-07-20T02:04:01;1.08;;;0.50;;
75413;SDS011;64758;52.122;5.404;2023-07-20T02:06:27;1.25;;;0.80;;
75413;SDS011;64758;52.122;5.404;2023-07-20T02:08:54;1.77;;;0.52;;
75413;SDS011;64758;52.122;5.404;2023-07-20T02:11:21;0.90;;;0.57;;
75413;SDS011;64758;52.122;5.404;2023-07-20T02:13:47;0.97;;;0.50;;
75413;SDS011;64758;52.122;5.404;2023-07-20T02:16:14;2.25;;;0.80;;
75413;SDS011;64758;52.122;5.404;2023-07-20T02:18:40;0.88;;;0.52;;
75413;SDS011;64758;52.122;5.404;2023-07-20T02:21:07;1.10;;;0.60;;
75413;SDS011;64758;52.122;5.404;2023-07-20T02:23:33;1.00;;;0.80;;
75413;SDS011;64758;52.122;5.404;2023-07-20T02:26:00;1.13;;;0.70;;
75413;SDS011;64758;52.122;5.404;2023-07-20T02:28:27;2.45;;;0.60;;
75413;SDS011;64758;52.122;5.404;2023-07-20T02:30:54;0.93;;;0.60;;
75413;SDS011;64758;52.122;5.404;2023-07-20T02:33:21;2.45;;;0.60;;
75413;SDS011;64758;52.122;5.404;2023-07-20T02:35:48;1.10;;;0.55;;
75413;SDS011;64758;52.122;5.404;2023-07-20T02:38:15;1.27;;;0.60;;
75413;SDS011;64758;52.122;5.404;2023-07-20T02:40:41;2.38;;;0.70;;
75413;SDS011;64758;52.122;5.404;2023-07-20T02:43:08;1.10;;;0.75;;
75413;SDS011;64758;52.122;5.404;2023-07-20T02:45:35;0.90;;;0.50;;
75413;SDS011;64758;52.122;5.404;2023-07-20T02:48:06;1.10;;;0.63;;
75413;SDS011;64758;52.122;5.404;2023-07-20T02:50:34;1.00;;;0.50;;
75413;SDS011;64758;52.122;5.404;2023-07-20T02:53:01;1.20;;;0.63;;
75413;SDS011;64758;52.122;5.404;2023-07-20T02:55:28;1.38;;;0.82;;
75413;SDS011;64758;52.122;5.404;2023-07-20T02:57:55;1.00;;;0.77;;
75413;SDS011;64758;52.122;5.404;2023-07-20T03:00:21;0.52;;;0.40;;
75413;SDS011;64758;52.122;5.404;2023-07-20T03:02:49;0.80;;;0.50;;
75413;SDS011;64758;52.122;5.404;2023-07-20T03:05:19;1.05;;;0.50;;
75413;SDS011;64758;52.122;5.404;2023-07-20T03:07:46;0.50;;;0.32;;
75413;SDS011;64758;52.122;5.404;2023-07-20T03:10:12;0.80;;;0.30;;
75413;SDS011;64758;52.122;5.404;2023-07-20T03:12:39;2.17;;;0.40;;
75413;SDS011;64758;52.122;5.404;2023-07-20T03:15:06;0.60;;;0.40;;
75413;SDS011;64758;52.122;5.404;2023-07-20T03:17:33;3.72;;;0.65;;
75413;SDS011;64758;52.122;5.404;2023-07-20T03:19:59;0.82;;;0.50;;
75413;SDS011;64758;52.122;5.404;2023-07-20T03:22:27;3.88;;;0.80;;
75413;SDS011;64758;52.122;5.404;2023-07-20T03:24:53;1.73;;;0.70;;
75413;SDS011;64758;52.122;5.404;2023-07-20T03:27:20;1.03;;;0.70;;
75413;SDS011;64758;52.122;5.404;2023-07-20T03:29:46;0.77;;;0.40;;
75413;SDS011;64758;52.122;5.404;2023-07-20T03:32:13;1.50;;;0.75;;
75413;SDS011;64758;52.122;5.404;2023-07-20T03:34:40;1.55;;;0.90;;
75413;SDS011;64758;52.122;5.404;2023-07-20T03:37:06;0.85;;;0.52;;
75413;SDS011;64758;52.122;5.404;2023-07-20T03:39:33;1.97;;;0.67;;
75413;SDS011;64758;52.122;5.404;2023-07-20T03:42:00;0.95;;;0.68;;
75413;SDS011;64758;52.122;5.404;2023-07-20T03:44:26;0.80;;;0.60;;
75413;SDS011;64758;52.122;5.404;2023-07-20T03:46:53;0.85;;;0.50;;
75413;SDS011;64758;52.122;5.404;2023-07-20T03:49:19;0.98;;;0.70;;
75413;SDS011;64758;52.122;5.404;2023-07-20T03:51:46;0.80;;;0.60;;
75413;SDS011;64758;52.122;5.404;2023-07-20T03:54:12;0.93;;;0.60;;
75413;SDS011;64758;52.122;5.404;2023-07-20T03:56:39;0.77;;;0.52;;
75413;SDS011;64758;52.122;5.404;2023-07-20T03:59:06;0.70;;;0.40;;
75413;SDS011;64758;52.122;5.404;2023-07-20T04:01:32;2.00;;;0.50;;
75413;SDS011;64758;52.122;5.404;2023-07-20T04:04:05;0.83;;;0.60;;
75413;SDS011;64758;52.122;5.404;2023-07-20T04:06:34;0.88;;;0.57;;
75413;SDS011;64758;52.122;5.404;2023-07-20T04:09:00;1.30;;;0.80;;
75413;SDS011;64758;52.122;5.404;2023-07-20T04:11:27;1.00;;;0.52;;
75413;SDS011;64758;52.122;5.404;2023-07-20T04:13:54;0.68;;;0.38;;
75413;SDS011;64758;52.122;5.404;2023-07-20T04:16:22;0.90;;;0.50;;
75413;SDS011;64758;52.122;5.404;2023-07-20T04:18:49;1.00;;;0.50;;
75413;SDS011;64758;52.122;5.404;2023-07-20T04:21:16;0.90;;;0.57;;
75413;SDS011;64758;52.122;5.404;2023-07-20T04:23:42;0.80;;;0.50;;
75413;SDS011;64758;52.122;5.404;2023-07-20T04:26:09;1.00;;;0.50;;
75413;SDS011;64758;52.122;5.404;2023-07-20T04:28:38;1.20;;;0.60;;
75413;SDS011;64758;52.122;5.404;2023-07-20T04:31:12;1.10;;;0.80;;
75413;SDS011;64758;52.122;5.404;2023-07-20T04:33:39;2.10;;;1.10;;
75413;SDS011;64758;52.122;5.404;2023-07-20T04:36:06;2.85;;;1.25;;
75413;SDS011;64758;52.122;5.404;2023-07-20T04:38:33;2.72;;;1.40;;
75413;SDS011;64758;52.122;5.404;2023-07-20T04:41:00;1.80;;;1.00;;
75413;SDS011;64758;52.122;5.404;2023-07-20T04:43:28;2.95;;;1.13;;
75413;SDS011;64758;52.122;5.404;2023-07-20T04:45:55;1.40;;;1.17;;
75413;SDS011;64758;52.122;5.404;2023-07-20T04:48:22;2.90;;;1.15;;
75413;SDS011;64758;52.122;5.404;2023-07-20T04:50:48;1.67;;;1.25;;
75413;SDS011;64758;52.122;5.404;2023-07-20T04:53:15;2.63;;;0.87;;
75413;SDS011;64758;52.122;5.404;2023-07-20T04:55:47;2.10;;;1.10;;
75413;SDS011;64758;52.122;5.404;2023-07-20T04:58:19;1.20;;;0.90;;
75413;SDS011;64758;52.122;5.404;2023-07-20T05:00:49;1.80;;;0.98;;
75413;SDS011;64758;52.122;5.404;2023-07-20T05:03:16;2.10;;;1.50;;
75413;SDS011;64758;52.122;5.404;2023-07-20T05:05:44;2.10;;;1.40;;
75413;SDS011;64758;52.122;5.404;2023-07-20T05:08:14;2.33;;;1.60;;
75413;SDS011;64758;52.122;5.404;2023-07-20T05:10:40;2.45;;;1.42;;
75413;SDS011;64758;52.122;5.404;2023-07-20T05:13:07;5.00;;;2.03;;
75413;SDS011;64758;52.122;5.404;2023-07-20T05:15:34;2.45;;;1.48;;
75413;SDS011;64758;52.122;5.404;2023-07-20T05:18:03;2.23;;;1.77;;
75413;SDS011;64758;52.122;5.404;2023-07-20T05:20:30;4.25;;;2.00;;
75413;SDS011;64758;52.122;5.404;2023-07-20T05:22:58;2.50;;;1.80;;
75413;SDS011;64758;52.122;5.404;2023-07-20T05:25:25;3.05;;;1.88;;
75413;SDS011;64758;52.122;5.404;2023-07-20T05:27:55;3.30;;;2.35;;
75413;SDS011;64758;52.122;5.404;2023-07-20T05:30:21;5.40;;;1.93;;
75413;SDS011;64758;52.122;5.404;2023-07-20T05:32:48;2.28;;;2.05;;
75413;SDS011;64758;52.122;5.404;2023-07-20T05:35:17;3.03;;;2.00;;
75413;SDS011;64758;52.122;5.404;2023-07-20T05:37:44;4.93;;;2.80;;
75413;SDS011;64758;52.122;5.404;2023-07-20T05:40:12;2.83;;;2.45;;
75413;SDS011;64758;52.122;5.404;2023-07-20T05:42:39;2.73;;;1.53;;
75413;SDS011;64758;52.122;5.404;2023-07-20T05:45:05;3.05;;;1.02;;
75413;SDS011;64758;52.122;5.404;2023-07-20T05:47:33;2.08;;;1.50;;
75413;SDS011;64758;52.122;5.404;2023-07-20T05:49:59;3.88;;;1.40;;
75413;SDS011;64758;52.122;5.404;2023-07-20T05:52:26;1.85;;;1.27;;
75413;SDS011;64758;52.122;5.404;2023-07-20T05:54:53;2.63;;;1.40;;
75413;SDS011;64758;52.122;5.404;2023-07-20T05:57:19;1.98;;;1.33;;
75413;SDS011;64758;52.122;5.404;2023-07-20T05:59:46;1.50;;;1.15;;
75413;SDS011;64758;52.122;5.404;2023-07-20T06:02:13;1.63;;;1.13;;
75413;SDS011;64758;52.122;5.404;2023-07-20T06:04:39;1.70;;;1.30;;
75413;SDS011;64758;52.122;5.404;2023-07-20T06:07:06;2.17;;;1.00;;
75413;SDS011;64758;52.122;5.404;2023-07-20T06:09:34;1.75;;;1.00;;
75413;SDS011;64758;52.122;5.404;2023-07-20T06:12:00;4.00;;;1.10;;
75413;SDS011;64758;52.122;5.404;2023-07-20T06:14:27;2.03;;;0.77;;
75413;SDS011;64758;52.122;5.404;2023-07-20T06:16:54;1.55;;;1.15;;
75413;SDS011;64758;52.122;5.404;2023-07-20T06:19:20;1.63;;;1.07;;
75413;SDS011;64758;52.122;5.404;2023-07-20T06:21:48;1.73;;;1.17;;
75413;SDS011;64758;52.122;5.404;2023-07-20T06:24:16;1.98;;;0.90;;
75413;SDS011;64758;52.122;5.404;2023-07-20T06:26:43;2.13;;;0.82;;
75413;SDS011;64758;52.122;5.404;2023-07-20T06:29:09;1.75;;;0.70;;
75413;SDS011;64758;52.122;5.404;2023-07-20T06:31:36;3.77;;;1.13;;
75413;SDS011;64758;52.122;5.404;2023-07-20T06:34:03;2.10;;;0.82;;
75413;SDS011;64758;52.122;5.404;2023-07-20T06:36:30;0.80;;;0.70;;
75413;SDS011;64758;52.122;5.404;2023-07-20T06:38:57;1.90;;;0.70;;
75413;SDS011;64758;52.122;5.404;2023-07-20T06:41:26;1.23;;;0.85;;
75413;SDS011;64758;52.122;5.404;2023-07-20T06:43:56;4.73;;;0.70;;
75413;SDS011;64758;52.122;5.404;2023-07-20T06:46:25;1.00;;;0.70;;
75413;SDS011;64758;52.122;5.404;2023-07-20T06:48:53;1.65;;;0.50;;
75413;SDS011;64758;52.122;5.404;2023-07-20T06:51:22;1.08;;;0.70;;
75413;SDS011;64758;52.122;5.404;2023-07-20T06:53:49;1.23;;;0.40;;
75413;SDS011;64758;52.122;5.404;2023-07-20T06:56:16;2.47;;;0.87;;
75413;SDS011;64758;52.122;5.404;2023-07-20T06:58:42;1.10;;;0.50;;
75413;SDS011;64758;52.122;5.404;2023-07-20T07:01:09;1.50;;;0.45;;
75413;SDS011;64758;52.122;5.404;2023-07-20T07:03:36;2.03;;;0.50;;
75413;SDS011;64758;52.122;5.404;2023-07-20T07:06:03;0.98;;;0.60;;
75413;SDS011;64758;52.122;5.404;2023-07-20T07:08:30;0.70;;;0.40;;
75413;SDS011;64758;52.122;5.404;2023-07-20T07:10:56;0.73;;;0.55;;
75413;SDS011;64758;52.122;5.404;2023-07-20T07:13:23;2.40;;;0.60;;
75413;SDS011;64758;52.122;5.404;2023-07-20T07:15:50;0.98;;;0.50;;
75413;SDS011;64758;52.122;5.404;2023-07-20T07:18:17;1.50;;;0.50;;
75413;SDS011;64758;52.122;5.404;2023-07-20T07:20:50;0.80;;;0.40;;
75413;SDS011;64758;52.122;5.404;2023-07-20T07:23:17;1.63;;;0.50;;
75413;SDS011;64758;52.122;5.404;2023-07-20T07:25:44;1.60;;;0.50;;
75413;SDS011;64758;52.122;5.404;2023-07-20T07:28:11;1.70;;;0.40;;
75413;SDS011;64758;52.122;5.404;2023-07-20T07:30:38;1.10;;;0.63;;
75413;SDS011;64758;52.122;5.404;2023-07-20T07:33:05;0.80;;;0.53;;
75413;SDS011;64758;52.122;5.404;2023-07-20T07:35:32;1.15;;;0.30;;
75413;SDS011;64758;52.122;5.404;2023-07-20T07:37:58;1.98;;;0.50;;
75413;SDS011;64758;52.122;5.404;2023-07-20T07:40:44;2.20;;;0.40;;
75413;SDS011;64758;52.122;5.404;2023-07-20T07:43:11;1.08;;;0.47;;
75413;SDS011;64758;52.122;5.404;2023-07-20T07:45:38;1.10;;;0.40;;
75413;SDS011;64758;52.122;5.404;2023-07-20T07:48:05;0.50;;;0.40;;
75413;SDS011;64758;52.122;5.404;2023-07-20T07:50:33;0.50;;;0.40;;
75413;SDS011;64758;52.122;5.404;2023-07-20T07:53:00;0.90;;;0.32;;
75413;SDS011;64758;52.122;5.404;2023-07-20T07:55:26;1.60;;;0.50;;
75413;SDS011;64758;52.122;5.404;2023-07-20T07:57:54;1.50;;;0.50;;
75413;SDS011;64758;52.122;5.404;2023-07-20T08:00:20;0.63;;;0.40;;
75413;SDS011;64758;52.122;5.404;2023-07-20T08:02:47;2.83;;;0.70;;
75413;SDS011;64758;52.122;5.404;2023-07-20T08:05:17;1.48;;;0.45;;
75413;SDS011;64758;52.122;5.404;2023-07-20T08:07:43;1.65;;;0.40;;
75413;SDS011;64758;52.122;5.404;2023-07-20T08:10:11;1.13;;;0.43;;
75413;SDS011;64758;52.122;5.404;2023-07-20T08:12:38;0.95;;;0.40;;
75413;SDS011;64758;52.122;5.404;2023-07-20T08:15:04;2.03;;;0.40;;
75413;SDS011;64758;52.122;5.404;2023-07-20T08:17:31;0.60;;;0.30;;
75413;SDS011;64758;52.122;5.404;2023-07-20T08:19:58;0.60;;;0.30;;
75413;SDS011;64758;52.122;5.404;2023-07-20T08:22:25;0.80;;;0.40;;
75413;SDS011;64758;52.122;5.404;2023-07-20T08:24:52;1.00;;;0.50;;
75413;SDS011;64758;52.122;5.404;2023-07-20T08:27:19;0.60;;;0.40;;
75413;SDS011;64758;52.122;5.404;2023-07-20T08:29:45;1.98;;;0.50;;
75413;SDS011;64758;52.122;5.404;2023-07-20T08:32:12;0.90;;;0.30;;
75413;SDS011;64758;52.122;5.404;2023-07-20T08:34:41;0.97;;;0.40;;
75413;SDS011;64758;52.122;5.404;2023-07-20T08:37:08;2.90;;;0.47;;
75413;SDS011;64758;52.122;5.404;2023-07-20T08:39:36;0.60;;;0.30;;
75413;SDS011;64758;52.122;5.404;2023-07-20T08:42:03;0.60;;;0.20;;
75413;SDS011;64758;52.122;5.404;2023-07-20T08:44:33;0.73;;;0.30;;
75413;SDS011;64758;52.122;5.404;2023-07-20T08:47:01;0.70;;;0.40;;
75413;SDS011;64758;52.122;5.404;2023-07-20T08:49:32;0.77;;;0.35;;
75413;SDS011;64758;52.122;5.404;2023-07-20T08:52:00;1.13;;;0.38;;
75413;SDS011;64758;52.122;5.404;2023-07-20T08:54:27;0.50;;;0.30;;
75413;SDS011;64758;52.122;5.404;2023-07-20T08:57:02;0.70;;;0.40;;
75413;SDS011;64758;52.122;5.404;2023-07-20T08:59:30;0.97;;;0.40;;
75413;SDS011;64758;52.122;5.404;2023-07-20T09:01:57;0.82;;;0.30;;
75413;SDS011;64758;52.122;5.404;2023-07-20T09:04:25;1.35;;;0.30;;
75413;SDS011;64758;52.122;5.404;2023-07-20T09:06:52;1.25;;;0.50;;
75413;SDS011;64758;52.122;5.404;2023-07-20T09:09:19;1.13;;;0.38;;
75413;SDS011;64758;52.122;5.404;2023-07-20T09:11:48;0.50;;;0.30;;
75413;SDS011;64758;52.122;5.404;2023-07-20T09:14:15;0.40;;;0.32;;
75413;SDS011;64758;52.122;5.404;2023-07-20T09:16:48;0.63;;;0.40;;
75413;SDS011;64758;52.122;5.404;2023-07-20T09:19:17;0.90;;;0.40;;
75413;SDS011;64758;52.122;5.404;2023-07-20T09:21:44;1.40;;;0.40;;
75413;SDS011;64758;52.122;5.404;2023-07-20T09:24:12;0.93;;;0.33;;
75413;SDS011;64758;52.122;5.404;2023-07-20T09:26:40;1.50;;;0.40;;
75413;SDS011;64758;52.122;5.404;2023-07-20T09:29:09;0.50;;;0.30;;
75413;SDS011;64758;52.122;5.404;2023-07-20T09:31:36;0.70;;;0.47;;
75413;SDS011;64758;52.122;5.404;2023-07-20T09:34:06;1.30;;;0.30;;
75413;SDS011;64758;52.122;5.404;2023-07-20T09:36:34;1.73;;;0.30;;
75413;SDS011;64758;52.122;5.404;2023-07-20T09:39:05;0.50;;;0.40;;
75413;SDS011;64758;52.122;5.404;2023-07-20T09:41:41;1.30;;;0.30;;
75413;SDS011;64758;52.122;5.404;2023-07-20T09:44:11;0.50;;;0.30;;
75413;SDS011;64758;52.122;5.404;2023-07-20T09:46:44;0.63;;;0.30;;
75413;SDS011;64758;52.122;5.404;2023-07-20T09:49:16;2.00;;;0.30;;
75413;SDS011;64758;52.122;5.404;2023-07-20T09:51:46;0.65;;;0.30;;
75413;SDS011;64758;52.122;5.404;2023-07-20T09:54:13;0.73;;;0.30;;
75413;SDS011;64758;52.122;5.404;2023-07-20T09:56:40;0.85;;;0.47;;
75413;SDS011;64758;52.122;5.404;2023-07-20T09:59:08;0.98;;;0.30;;
75413;SDS011;64758;52.122;5.404;2023-07-20T10:01:35;0.60;;;0.30;;
75413;SDS011;64758;52.122;5.404;2023-07-20T10:04:04;0.70;;;0.40;;
75413;SDS011;64758;52.122;5.404;2023-07-20T10:06:35;0.77;;;0.40;;
75413;SDS011;64758;52.122;5.404;2023-07-20T10:09:08;0.60;;;0.35;;
75413;SDS011;64758;52.122;5.404;2023-07-20T10:11:36;1.25;;;0.50;;
75413;SDS011;64758;52.122;5.404;2023-07-20T10:14:09;0.53;;;0.30;;
75413;SDS011;64758;52.122;5.404;2023-07-20T10:16:42;0.93;;;0.30;;
75413;SDS011;64758;52.122;5.404;2023-07-20T10:19:34;4.00;;;0.98;;
75413;SDS011;64758;52.122;5.404;2023-07-20T10:22:22;0.38;;;0.22;;
75413;SDS011;64758;52.122;5.404;2023-07-20T10:24:52;1.05;;;0.32;;
75413;SDS011;64758;52.122;5.404;2023-07-20T10:27:20;1.30;;;1.13;;
75413;SDS011;64758;52.122;5.404;2023-07-20T10:29:47;1.13;;;0.30;;
75413;SDS011;64758;52.122;5.404;2023-07-20T10:32:14;0.63;;;0.30;;
75413;SDS011;64758;52.122;5.404;2023-07-20T10:34:41;1.33;;;0.40;;
75413;SDS011;64758;52.122;5.404;2023-07-20T10:37:07;0.55;;;0.30;;
75413;SDS011;64758;52.122;5.404;2023-07-20T10:39:34;0.60;;;0.30;;
75413;SDS011;64758;52.122;5.404;2023-07-20T10:42:02;0.68;;;0.30;;
75413;SDS011;64758;52.122;5.404;2023-07-20T10:44:41;1.33;;;0.40;;
75413;SDS011;64758;52.122;5.404;2023-07-20T10:47:11;0.60;;;0.30;;
75413;SDS011;64758;52.122;5.404;2023-07-20T10:49:58;0.40;;;0.30;;
75413;SDS011;64758;52.122;5.404;2023-07-20T10:52:26;0.60;;;0.40;;
75413;SDS011;64758;52.122;5.404;2023-07-20T10:55:15;0.60;;;0.35;;
75413;SDS011;64758;52.122;5.404;2023-07-20T10:57:43;1.13;;;0.30;;
75413;SDS011;64758;52.122;5.404;2023-07-20T11:00:12;0.30;;;0.30;;
75413;SDS011;64758;52.122;5.404;2023-07-20T11:02:47;0.52;;;0.40;;
75413;SDS011;64758;52.122;5.404;2023-07-20T11:08:05;1.52;;;0.30;;
75413;SDS011;64758;52.122;5.404;2023-07-20T11:10:36;0.40;;;0.30;;
75413;SDS011;64758;52.122;5.404;2023-07-20T11:13:18;1.35;;;0.30;;
75413;SDS011;64758;52.122;5.404;2023-07-20T11:16:19;1.10;;;0.30;;
75413;SDS011;64758;52.122;5.404;2023-07-20T11:18:39;0.60;;;0.30;;
75413;SDS011;64758;52.122;5.404;2023-07-20T11:21:07;0.80;;;0.30;;
75413;SDS011;64758;52.122;5.404;2023-07-20T11:23:37;0.55;;;0.30;;
75413;SDS011;64758;52.122;5.404;2023-07-20T11:26:04;2.40;;;0.30;;
75413;SDS011;64758;52.122;5.404;2023-07-20T11:28:32;2.10;;;0.35;;
75413;SDS011;64758;52.122;5.404;2023-07-20T11:31:00;0.60;;;0.30;;
75413;SDS011;64758;52.122;5.404;2023-07-20T11:33:26;0.90;;;0.40;;
75413;SDS011;64758;52.122;5.404;2023-07-20T11:35:53;0.70;;;0.30;;
75413;SDS011;64758;52.122;5.404;2023-07-20T11:38:21;0.70;;;0.35;;
75413;SDS011;64758;52.122;5.404;2023-07-20T11:40:47;0.60;;;0.30;;
75413;SDS011;64758;52.122;5.404;2023-07-20T11:43:14;0.40;;;0.30;;
75413;SDS011;64758;52.122;5.404;2023-07-20T11:45:44;0.75;;;0.30;;
75413;SDS011;64758;52.122;5.404;2023-07-20T11:48:15;1.05;;;0.45;;
75413;SDS011;64758;52.122;5.404;2023-07-20T11:50:42;0.98;;;0.30;;
75413;SDS011;64758;52.122;5.404;2023-07-20T11:53:09;0.50;;;0.30;;
75413;SDS011;64758;52.122;5.404;2023-07-20T11:55:36;1.13;;;0.40;;
75413;SDS011;64758;52.122;5.404;2023-07-20T11:58:03;0.80;;;0.30;;
75413;SDS011;64758;52.122;5.404;2023-07-20T12:00:31;0.82;;;0.40;;
75413;SDS011;64758;52.122;5.404;2023-07-20T12:02:59;0.50;;;0.32;;
75413;SDS011;64758;52.122;5.404;2023-07-20T12:05:26;1.77;;;0.30;;
75413;SDS011;64758;52.122;5.404;2023-07-20T12:07:53;2.53;;;0.40;;
75413;SDS011;64758;52.122;5.404;2023-07-20T12:10:25;0.80;;;0.35;;
75413;SDS011;64758;52.122;5.404;2023-07-20T12:12:52;0.68;;;0.30;;
75413;SDS011;64758;52.122;5.404;2023-07-20T12:15:25;0.55;;;0.30;;
75413;SDS011;64758;52.122;5.404;2023-07-20T12:17:53;0.70;;;0.40;;
75413;SDS011;64758;52.122;5.404;2023-07-20T12:20:27;1.50;;;0.33;;
75413;SDS011;64758;52.122;5.404;2023-07-20T12:23:04;0.90;;;0.40;;
75413;SDS011;64758;52.122;5.404;2023-07-20T12:25:44;2.15;;;0.40;;
75413;SDS011;64758;52.122;5.404;2023-07-20T12:28:13;0.70;;;0.47;;
75413;SDS011;64758;52.122;5.404;2023-07-20T12:30:42;1.13;;;0.40;;
75413;SDS011;64758;52.122;5.404;2023-07-20T12:33:10;2.00;;;0.40;;
75413;SDS011;64758;52.122;5.404;2023-07-20T12:35:38;0.70;;;0.40;;
75413;SDS011;64758;52.122;5.404;2023-07-20T12:38:04;0.60;;;0.50;;
75413;SDS011;64758;52.122;5.404;2023-07-20T12:40:33;0.95;;;0.60;;
75413;SDS011;64758;52.122;5.404;2023-07-20T12:43:00;0.82;;;0.40;;
75413;SDS011;64758;52.122;5.404;2023-07-20T12:45:27;0.60;;;0.30;;
75413;SDS011;64758;52.122;5.404;2023-07-20T12:47:54;1.30;;;0.40;;
75413;SDS011;64758;52.122;5.404;2023-07-20T12:50:20;0.70;;;0.47;;
75413;SDS011;64758;52.122;5.404;2023-07-20T12:52:47;1.80;;;0.60;;
75413;SDS011;64758;52.122;5.404;2023-07-20T12:55:13;2.55;;;0.57;;
75413;SDS011;64758;52.122;5.404;2023-07-20T12:57:40;0.90;;;0.43;;
75413;SDS011;64758;52.122;5.404;2023-07-20T13:00:09;1.60;;;0.40;;
75413;SDS011;64758;52.122;5.404;2023-07-20T13:02:37;1.35;;;0.50;;
75413;SDS011;64758;52.122;5.404;2023-07-20T13:05:04;0.93;;;0.40;;
75413;SDS011;64758;52.122;5.404;2023-07-20T13:07:36;1.10;;;0.43;;
75413;SDS011;64758;52.122;5.404;2023-07-20T13:10:07;0.73;;;0.40;;
75413;SDS011;64758;52.122;5.404;2023-07-20T13:12:35;0.90;;;0.50;;
75413;SDS011;64758;52.122;5.404;2023-07-20T13:15:03;0.60;;;0.40;;
75413;SDS011;64758;52.122;5.404;2023-07-20T13:17:32;0.70;;;0.40;;
75413;SDS011;64758;52.122;5.404;2023-07-20T13:20:00;0.98;;;0.50;;
75413;SDS011;64758;52.122;5.404;2023-07-20T13:22:27;1.07;;;0.50;;
75413;SDS011;64758;52.122;5.404;2023-07-20T13:24:54;1.92;;;0.50;;
75413;SDS011;64758;52.122;5.404;2023-07-20T13:27:20;0.68;;;0.50;;
75413;SDS011;64758;52.122;5.404;2023-07-20T13:29:47;0.63;;;0.50;;
75413;SDS011;64758;52.122;5.404;2023-07-20T13:32:14;0.90;;;0.60;;
75413;SDS011;64758;52.122;5.404;2023-07-20T13:34:42;2.03;;;1.03;;
75413;SDS011;64758;52.122;5.404;2023-07-20T13:37:14;0.63;;;0.52;;
75413;SDS011;64758;52.122;5.404;2023-07-20T13:39:42;1.17;;;0.50;;
75413;SDS011;64758;52.122;5.404;2023-07-20T13:42:10;0.95;;;0.60;;
75413;SDS011;64758;52.122;5.404;2023-07-20T13:44:38;1.38;;;0.52;;
75413;SDS011;64758;52.122;5.404;2023-07-20T13:47:05;1.63;;;0.50;;
75413;SDS011;64758;52.122;5.404;2023-07-20T13:49:34;0.60;;;0.40;;
75413;SDS011;64758;52.122;5.404;2023-07-20T13:52:12;1.17;;;0.60;;
75413;SDS011;64758;52.122;5.404;2023-07-20T13:54:41;1.08;;;0.52;;
75413;SDS011;64758;52.122;5.404;2023-07-20T13:57:14;1.73;;;0.70;;
75413;SDS011;64758;52.122;5.404;2023-07-20T13:59:41;1.17;;;0.50;;
75413;SDS011;64758;52.122;5.404;2023-07-20T14:02:09;0.63;;;0.40;;
75413;SDS011;64758;52.122;5.404;2023-07-20T14:04:39;0.70;;;0.50;;
75413;SDS011;64758;52.122;5.404;2023-07-20T14:07:06;1.67;;;0.50;;
75413;SDS011;64758;52.122;5.404;2023-07-20T14:09:33;0.60;;;0.40;;
75413;SDS011;64758;52.122;5.404;2023-07-20T14:11:59;1.83;;;0.40;;
75413;SDS011;64758;52.122;5.404;2023-07-20T14:14:29;1.05;;;0.40;;
75413;SDS011;64758;52.122;5.404;2023-07-20T14:16:55;1.30;;;0.52;;
75413;SDS011;64758;52.122;5.404;2023-07-20T14:19:23;0.70;;;0.40;;
75413;SDS011;64758;52.122;5.404;2023-07-20T14:21:49;0.80;;;0.43;;
75413;SDS011;64758;52.122;5.404;2023-07-20T14:24:16;2.03;;;0.53;;
75413;SDS011;64758;52.122;5.404;2023-07-20T14:26:44;0.95;;;0.52;;
75413;SDS011;64758;52.122;5.404;2023-07-20T14:29:12;1.73;;;0.50;;
75413;SDS011;64758;52.122;5.404;2023-07-20T14:31:39;1.30;;;0.50;;
75413;SDS011;64758;52.122;5.404;2023-07-20T14:34:05;2.17;;;0.50;;
75413;SDS011;64758;52.122;5.404;2023-07-20T14:36:32;1.47;;;0.50;;
75413;SDS011;64758;52.122;5.404;2023-07-20T14:39:00;1.80;;;0.50;;
75413;SDS011;64758;52.122;5.404;2023-07-20T14:41:27;2.58;;;0.60;;
75413;SDS011;64758;52.122;5.404;2023-07-20T14:43:53;1.35;;;0.60;;
75413;SDS011;64758;52.122;5.404;2023-07-20T14:46:20;2.55;;;0.65;;
75413;SDS011;64758;52.122;5.404;2023-07-20T14:48:47;1.13;;;0.50;;
75413;SDS011;64758;52.122;5.404;2023-07-20T14:51:14;0.85;;;0.63;;
75413;SDS011;64758;52.122;5.404;2023-07-20T14:53:41;1.38;;;0.52;;
75413;SDS011;64758;52.122;5.404;2023-07-20T14:56:08;1.30;;;0.43;;
75413;SDS011;64758;52.122;5.404;2023-07-20T14:58:35;0.93;;;0.30;;
75413;SDS011;64758;52.122;5.404;2023-07-20T15:01:02;2.20;;;0.43;;
75413;SDS011;64758;52.122;5.404;2023-07-20T15:03:30;1.00;;;0.50;;
75413;SDS011;64758;52.122;5.404;2023-07-20T15:05:57;0.80;;;0.60;;
75413;SDS011;64758;52.122;5.404;2023-07-20T15:08:24;0.90;;;0.40;;
75413;SDS011;64758;52.122;5.404;2023-07-20T15:10:51;1.02;;;0.60;;